sensor_id;sensor_type;location;lat;lon;timestamp;pressure;altitude;pressure_sealevel;temperature;humidity
79705;BME280;69940;53.120;8.764;2023-09-12T00:00:20;101343.00;;;22.24;83.57
79705;BME280;69940;53.120;8.764;2023-09-12T00:02:50;101338.00;;;22.22;83.72
79705;BME280;69940;53.120;8.764;2023-09-12T00:05:20;101334.00;;;22.20;83.82
79705;BME280;69940;53.120;8.764;2023-09-12T00:07:52;101326.00;;;22.19;83.91
79705;BME280;69940;53.120;8.764;2023-09-12T00:10:20;101315.00;;;22.18;83.95
79705;BME280;69940;53.120;8.764;2023-09-12T00:12:50;101302.00;;;22.16;84.10
79705;BME280;69940;53.120;8.764;2023-09-12T00:15:21;101290.00;;;22.15;84.19
79705;BME280;69940;53.120;8.764;2023-09-12T00:17:50;101278.00;;;22.13;84.25
79705;BME280;69940;53.120;8.764;2023-09-12T00:20:20;101265.00;;;22.11;84.29
79705;BME280;69940;53.120;8.764;2023-09-12T00:22:50;101254.00;;;22.08;84.32
79705;BME280;69940;53.120;8.764;2023-09-12T00:25:20;101249.00;;;22.06;84.48
79705;BME280;69940;53.120;8.764;2023-09-12T00:27:50;101246.00;;;22.02;84.60
79705;BME280;69940;53.120;8.764;2023-09-12T00:30:20;101241.00;;;21.99;84.69
79705;BME280;69940;53.120;8.764;2023-09-12T00:32:50;101237.00;;;21.96;84.69
79705;BME280;69940;53.120;8.764;2023-09-12T00:35:20;101233.00;;;21.93;84.72
79705;BME280;69940;53.120;8.764;2023-09-12T00:37:50;101232.00;;;21.91;84.73
79705;BME280;69940;53.120;8.764;2023-09-12T00:40:20;101230.00;;;21.89;84.78
79705;BME280;69940;53.120;8.764;2023-09-12T00:42:51;101231.00;;;21.87;84.74
79705;BME280;69940;53.120;8.764;2023-09-12T00:45:20;101240.00;;;21.85;84.80
79705;BME280;69940;53.120;8.764;2023-09-12T00:47:51;101254.00;;;21.82;85.02
79705;BME280;69940;53.120;8.764;2023-09-12T00:50:20;101268.00;;;21.80;84.99
79705;BME280;69940;53.120;8.764;2023-09-12T00:52:50;101278.00;;;21.78;85.04
79705;BME280;69940;53.120;8.764;2023-09-12T00:55:20;101285.00;;;21.76;85.17
79705;BME280;69940;53.120;8.764;2023-09-12T00:57:52;101294.00;;;21.75;85.33
79705;BME280;69940;53.120;8.764;2023-09-12T01:00:20;101304.00;;;21.73;85.37
79705;BME280;69940;53.120;8.764;2023-09-12T01:02:54;101315.00;;;21.72;85.51
79705;BME280;69940;53.120;8.764;2023-09-12T01:05:23;101323.00;;;21.71;85.38
79705;BME280;69940;53.120;8.764;2023-09-12T01:07:50;101329.00;;;21.71;85.22
79705;BME280;69940;53.120;8.764;2023-09-12T01:10:20;101336.00;;;21.70;85.37
79705;BME280;69940;53.120;8.764;2023-09-12T01:12:51;101343.00;;;21.70;85.30
79705;BME280;69940;53.120;8.764;2023-09-12T01:15:20;101346.00;;;21.69;85.49
79705;BME280;69940;53.120;8.764;2023-09-12T01:17:50;101344.00;;;21.69;85.70
79705;BME280;69940;53.120;8.764;2023-09-12T01:20:27;101343.00;;;21.70;85.84
79705;BME280;69940;53.120;8.764;2023-09-12T01:23:01;101341.00;;;21.70;85.95
79705;BME280;69940;53.120;8.764;2023-09-12T01:25:37;101341.00;;;21.70;85.92
79705;BME280;69940;53.120;8.764;2023-09-12T01:27:52;101342.00;;;21.70;85.90
79705;BME280;69940;53.120;8.764;2023-09-12T01:30:21;101344.00;;;21.70;85.89
79705;BME280;69940;53.120;8.764;2023-09-12T01:32:50;101345.00;;;21.70;85.97
79705;BME280;69940;53.120;8.764;2023-09-12T01:35:20;101349.00;;;21.70;86.01
79705;BME280;69940;53.120;8.764;2023-09-12T01:37:50;101350.00;;;21.70;86.01
79705;BME280;69940;53.120;8.764;2023-09-12T01:40:33;101354.00;;;21.70;85.98
79705;BME280;69940;53.120;8.764;2023-09-12T01:42:52;101356.00;;;21.70;85.98
79705;BME280;69940;53.120;8.764;2023-09-12T01:45:20;101359.00;;;21.70;86.03
79705;BME280;69940;53.120;8.764;2023-09-12T01:47:54;101360.00;;;21.70;85.92
79705;BME280;69940;53.120;8.764;2023-09-12T01:50:20;101361.00;;;21.71;85.95
79705;BME280;69940;53.120;8.764;2023-09-12T01:52:51;101358.00;;;21.71;85.99
79705;BME280;69940;53.120;8.764;2023-09-12T01:55:20;101354.00;;;21.71;86.08
79705;BME280;69940;53.120;8.764;2023-09-12T01:57:50;101349.00;;;21.72;86.10
79705;BME280;69940;53.120;8.764;2023-09-12T02:00:21;101341.00;;;21.72;86.11
79705;BME280;69940;53.120;8.764;2023-09-12T02:02:50;101333.00;;;21.72;86.17
79705;BME280;69940;53.120;8.764;2023-09-12T02:05:21;101324.00;;;21.71;86.26
79705;BME280;69940;53.120;8.764;2023-09-12T02:07:50;101314.00;;;21.71;86.43
79705;BME280;69940;53.120;8.764;2023-09-12T02:10:20;101313.00;;;21.70;86.45
79705;BME280;69940;53.120;8.764;2023-09-12T02:12:50;101313.00;;;21.69;86.56
79705;BME280;69940;53.120;8.764;2023-09-12T02:15:20;101312.00;;;21.67;86.62
79705;BME280;69940;53.120;8.764;2023-09-12T02:17:53;101316.00;;;21.66;86.83
79705;BME280;69940;53.120;8.764;2023-09-12T02:20:21;101325.00;;;21.64;86.86
79705;BME280;69940;53.120;8.764;2023-09-12T02:22:50;101331.00;;;21.62;86.92
79705;BME280;69940;53.120;8.764;2023-09-12T02:25:20;101334.00;;;21.62;86.96
79705;BME280;69940;53.120;8.764;2023-09-12T02:27:50;101338.00;;;21.62;87.02
79705;BME280;69940;53.120;8.764;2023-09-12T02:30:20;101342.00;;;21.61;87.09
79705;BME280;69940;53.120;8.764;2023-09-12T02:32:50;101341.00;;;21.61;87.14
79705;BME280;69940;53.120;8.764;2023-09-12T02:35:20;101338.00;;;21.61;87.24
79705;BME280;69940;53.120;8.764;2023-09-12T02:37:50;101333.00;;;21.62;87.13
79705;BME280;69940;53.120;8.764;2023-09-12T02:40:20;101327.00;;;21.63;87.17
79705;BME280;69940;53.120;8.764;2023-09-12T02:42:50;101324.00;;;21.64;87.09
79705;BME280;69940;53.120;8.764;2023-09-12T02:45:20;101323.00;;;21.65;86.96
79705;BME280;69940;53.120;8.764;2023-09-12T02:47:50;101326.00;;;21.65;86.97
79705;BME280;69940;53.120;8.764;2023-09-12T02:50:20;101330.00;;;21.65;87.02
79705;BME280;69940;53.120;8.764;2023-09-12T02:52:50;101337.00;;;21.63;87.03
79705;BME280;69940;53.120;8.764;2023-09-12T02:55:20;101344.00;;;21.61;87.07
79705;BME280;69940;53.120;8.764;2023-09-12T02:57:50;101348.00;;;21.59;87.19
79705;BME280;69940;53.120;8.764;2023-09-12T03:00:20;101348.00;;;21.58;87.23
79705;BME280;69940;53.120;8.764;2023-09-12T03:02:50;101344.00;;;21.58;87.29
79705;BME280;69940;53.120;8.764;2023-09-12T03:05:20;101345.00;;;21.57;87.28
79705;BME280;69940;53.120;8.764;2023-09-12T03:07:50;101346.00;;;21.57;87.33
79705;BME280;69940;53.120;8.764;2023-09-12T03:10:20;101345.00;;;21.57;87.26
79705;BME280;69940;53.120;8.764;2023-09-12T03:12:50;101341.00;;;21.57;87.24
79705;BME280;69940;53.120;8.764;2023-09-12T03:15:20;101337.00;;;21.57;87.24
79705;BME280;69940;53.120;8.764;2023-09-12T03:17:50;101336.00;;;21.57;87.30
79705;BME280;69940;53.120;8.764;2023-09-12T03:20:20;101336.00;;;21.57;87.32
79705;BME280;69940;53.120;8.764;2023-09-12T03:22:50;101336.00;;;21.56;87.38
79705;BME280;69940;53.120;8.764;2023-09-12T03:25:20;101337.00;;;21.56;87.43
79705;BME280;69940;53.120;8.764;2023-09-12T03:27:50;101335.00;;;21.55;87.42
79705;BME280;69940;53.120;8.764;2023-09-12T03:30:20;101334.00;;;21.55;87.46
79705;BME280;69940;53.120;8.764;2023-09-12T03:32:50;101333.00;;;21.56;87.46
79705;BME280;69940;53.120;8.764;2023-09-12T03:35:20;101330.00;;;21.56;87.41
79705;BME280;69940;53.120;8.764;2023-09-12T03:37:50;101325.00;;;21.57;87.38
79705;BME280;69940;53.120;8.764;2023-09-12T03:40:20;101319.00;;;21.57;87.32
79705;BME280;69940;53.120;8.764;2023-09-12T03:42:50;101314.00;;;21.57;87.44
79705;BME280;69940;53.120;8.764;2023-09-12T03:45:22;101305.00;;;21.57;87.52
79705;BME280;69940;53.120;8.764;2023-09-12T03:47:51;101300.00;;;21.57;87.62
79705;BME280;69940;53.120;8.764;2023-09-12T04:00:56;101261.00;;;21.52;87.75
79705;BME280;69940;53.120;8.764;2023-09-12T04:03:26;101253.00;;;21.51;87.74
79705;BME280;69940;53.120;8.764;2023-09-12T04:05:55;101246.00;;;21.49;87.85
79705;BME280;69940;53.120;8.764;2023-09-12T04:08:26;101241.00;;;21.48;87.88
79705;BME280;69940;53.120;8.764;2023-09-12T04:10:20;101238.00;;;21.47;87.88
79705;BME280;69940;53.120;8.764;2023-09-12T04:12:50;101245.00;;;21.46;87.85
79705;BME280;69940;53.120;8.764;2023-09-12T04:15:20;101253.00;;;21.44;87.84
79705;BME280;69940;53.120;8.764;2023-09-12T04:17:50;101262.00;;;21.43;87.91
79705;BME280;69940;53.120;8.764;2023-09-12T04:20:20;101270.00;;;21.41;87.98
79705;BME280;69940;53.120;8.764;2023-09-12T04:22:50;101277.00;;;21.40;87.92
79705;BME280;69940;53.120;8.764;2023-09-12T04:25:20;101284.00;;;21.39;88.03
79705;BME280;69940;53.120;8.764;2023-09-12T04:27:50;101288.00;;;21.38;88.13
79705;BME280;69940;53.120;8.764;2023-09-12T04:30:20;101291.00;;;21.38;88.17
79705;BME280;69940;53.120;8.764;2023-09-12T04:32:50;101294.00;;;21.38;88.16
79705;BME280;69940;53.120;8.764;2023-09-12T04:35:21;101299.00;;;21.38;88.11
79705;BME280;69940;53.120;8.764;2023-09-12T04:37:50;101300.00;;;21.38;88.06
79705;BME280;69940;53.120;8.764;2023-09-12T04:40:20;101300.00;;;21.38;87.96
79705;BME280;69940;53.120;8.764;2023-09-12T04:45:20;101298.00;;;21.36;88.17
79705;BME280;69940;53.120;8.764;2023-09-12T04:47:50;101297.00;;;21.34;88.28
79705;BME280;69940;53.120;8.764;2023-09-12T04:50:20;101296.00;;;21.32;88.27
79705;BME280;69940;53.120;8.764;2023-09-12T04:52:50;101297.00;;;21.30;88.36
79705;BME280;69940;53.120;8.764;2023-09-12T04:55:24;101296.00;;;21.29;88.39
79705;BME280;69940;53.120;8.764;2023-09-12T04:57:50;101297.00;;;21.29;88.32
79705;BME280;69940;53.120;8.764;2023-09-12T05:00:20;101297.00;;;21.29;88.25
79705;BME280;69940;53.120;8.764;2023-09-12T05:02:50;101300.00;;;21.29;88.24
79705;BME280;69940;53.120;8.764;2023-09-12T05:05:20;101303.00;;;21.29;88.22
79705;BME280;69940;53.120;8.764;2023-09-12T05:07:50;101307.00;;;21.29;88.25
79705;BME280;69940;53.120;8.764;2023-09-12T05:10:20;101311.00;;;21.29;88.16
79705;BME280;69940;53.120;8.764;2023-09-12T05:12:50;101313.00;;;21.30;88.06
79705;BME280;69940;53.120;8.764;2023-09-12T05:15:20;101316.00;;;21.30;88.06
79705;BME280;69940;53.120;8.764;2023-09-12T05:17:50;101317.00;;;21.31;88.02
79705;BME280;69940;53.120;8.764;2023-09-12T05:20:20;101317.00;;;21.31;88.02
79705;BME280;69940;53.120;8.764;2023-09-12T05:22:50;101317.00;;;21.32;87.94
79705;BME280;69940;53.120;8.764;2023-09-12T05:25:20;101317.00;;;21.32;87.98
79705;BME280;69940;53.120;8.764;2023-09-12T05:27:50;101316.00;;;21.33;88.09
79705;BME280;69940;53.120;8.764;2023-09-12T05:30:20;101315.00;;;21.33;87.96
79705;BME280;69940;53.120;8.764;2023-09-12T05:32:52;101314.00;;;21.34;88.02
79705;BME280;69940;53.120;8.764;2023-09-12T05:35:20;101312.00;;;21.35;88.02
79705;BME280;69940;53.120;8.764;2023-09-12T05:37:51;101311.00;;;21.35;88.01
79705;BME280;69940;53.120;8.764;2023-09-12T05:40:20;101311.00;;;21.35;87.93
79705;BME280;69940;53.120;8.764;2023-09-12T05:42:50;101311.00;;;21.35;87.85
79705;BME280;69940;53.120;8.764;2023-09-12T05:45:20;101311.00;;;21.34;87.80
79705;BME280;69940;53.120;8.764;2023-09-12T05:47:51;101314.00;;;21.33;87.78
79705;BME280;69940;53.120;8.764;2023-09-12T05:50:20;101316.00;;;21.32;87.72
79705;BME280;69940;53.120;8.764;2023-09-12T05:52:50;101317.00;;;21.31;87.73
79705;BME280;69940;53.120;8.764;2023-09-12T05:55:20;101317.00;;;21.30;87.66
79705;BME280;69940;53.120;8.764;2023-09-12T05:57:53;101320.00;;;21.30;87.60
79705;BME280;69940;53.120;8.764;2023-09-12T06:00:21;101322.00;;;21.29;87.59
79705;BME280;69940;53.120;8.764;2023-09-12T06:02:50;101324.00;;;21.29;87.56
79705;BME280;69940;53.120;8.764;2023-09-12T06:05:20;101325.00;;;21.28;87.59
79705;BME280;69940;53.120;8.764;2023-09-12T06:07:50;101326.00;;;21.27;87.61
79705;BME280;69940;53.120;8.764;2023-09-12T06:10:20;101327.00;;;21.26;87.50
79705;BME280;69940;53.120;8.764;2023-09-12T06:12:50;101329.00;;;21.24;87.54
79705;BME280;69940;53.120;8.764;2023-09-12T06:15:20;101332.00;;;21.23;87.59
79705;BME280;69940;53.120;8.764;2023-09-12T06:17:50;101334.00;;;21.23;87.58
79705;BME280;69940;53.120;8.764;2023-09-12T06:20:21;101336.00;;;21.23;87.51
79705;BME280;69940;53.120;8.764;2023-09-12T06:22:50;101336.00;;;21.23;87.40
79705;BME280;69940;53.120;8.764;2023-09-12T06:25:20;101335.00;;;21.23;87.51
79705;BME280;69940;53.120;8.764;2023-09-12T06:27:51;101334.00;;;21.23;87.53
79705;BME280;69940;53.120;8.764;2023-09-12T06:30:20;101333.00;;;21.24;87.56
79705;BME280;69940;53.120;8.764;2023-09-12T06:32:50;101332.00;;;21.24;87.52
79705;BME280;69940;53.120;8.764;2023-09-12T06:35:20;101332.00;;;21.26;87.39
79705;BME280;69940;53.120;8.764;2023-09-12T06:37:50;101334.00;;;21.27;87.37
79705;BME280;69940;53.120;8.764;2023-09-12T06:40:20;101333.00;;;21.27;87.51
79705;BME280;69940;53.120;8.764;2023-09-12T06:42:50;101333.00;;;21.28;87.46
79705;BME280;69940;53.120;8.764;2023-09-12T06:45:20;101333.00;;;21.28;87.32
79705;BME280;69940;53.120;8.764;2023-09-12T06:47:50;101331.00;;;21.29;87.33
79705;BME280;69940;53.120;8.764;2023-09-12T06:50:20;101330.00;;;21.30;87.28
79705;BME280;69940;53.120;8.764;2023-09-12T06:52:50;101329.00;;;21.31;87.19
79705;BME280;69940;53.120;8.764;2023-09-12T06:55:20;101327.00;;;21.32;87.13
79705;BME280;69940;53.120;8.764;2023-09-12T06:57:50;101325.00;;;21.33;87.01
79705;BME280;69940;53.120;8.764;2023-09-12T07:00:20;101322.00;;;21.35;87.01
79705;BME280;69940;53.120;8.764;2023-09-12T07:02:50;101322.00;;;21.36;87.16
79705;BME280;69940;53.120;8.764;2023-09-12T07:05:20;101324.00;;;21.38;87.25
79705;BME280;69940;53.120;8.764;2023-09-12T07:07:51;101326.00;;;21.41;87.33
79705;BME280;69940;53.120;8.764;2023-09-12T07:10:20;101327.00;;;21.43;87.03
79705;BME280;69940;53.120;8.764;2023-09-12T07:12:52;101326.00;;;21.46;86.66
79705;BME280;69940;53.120;8.764;2023-09-12T07:15:20;101326.00;;;21.49;86.54
79705;BME280;69940;53.120;8.764;2023-09-12T07:17:50;101325.00;;;21.52;86.46
79705;BME280;69940;53.120;8.764;2023-09-12T07:20:21;101324.00;;;21.56;86.38
79705;BME280;69940;53.120;8.764;2023-09-12T07:22:51;101323.00;;;21.60;86.34
79705;BME280;69940;53.120;8.764;2023-09-12T07:25:24;101322.00;;;21.64;86.39
79705;BME280;69940;53.120;8.764;2023-09-12T07:27:50;101323.00;;;21.69;86.53
79705;BME280;69940;53.120;8.764;2023-09-12T07:30:20;101325.00;;;21.73;86.32
79705;BME280;69940;53.120;8.764;2023-09-12T07:32:52;101327.00;;;21.76;86.02
79705;BME280;69940;53.120;8.764;2023-09-12T07:35:24;101330.00;;;21.80;85.66
79705;BME280;69940;53.120;8.764;2023-09-12T07:37:50;101335.00;;;21.82;85.52
79705;BME280;69940;53.120;8.764;2023-09-12T07:40:21;101339.00;;;21.85;85.23
79705;BME280;69940;53.120;8.764;2023-09-12T07:42:54;101344.00;;;21.88;84.95
79705;BME280;69940;53.120;8.764;2023-09-12T07:45:21;101349.00;;;21.91;84.81
79705;BME280;69940;53.120;8.764;2023-09-12T07:47:51;101352.00;;;21.95;84.81
79705;BME280;69940;53.120;8.764;2023-09-12T07:50:20;101357.00;;;21.98;84.32
79705;BME280;69940;53.120;8.764;2023-09-12T07:52:50;101361.00;;;22.00;84.27
79705;BME280;69940;53.120;8.764;2023-09-12T07:55:20;101365.00;;;22.02;84.24
79705;BME280;69940;53.120;8.764;2023-09-12T07:57:50;101369.00;;;22.03;84.13
79705;BME280;69940;53.120;8.764;2023-09-12T08:00:21;101372.00;;;22.04;83.58
79705;BME280;69940;53.120;8.764;2023-09-12T08:03:02;101374.00;;;22.05;83.54
79705;BME280;69940;53.120;8.764;2023-09-12T08:05:22;101376.00;;;22.05;83.46
79705;BME280;69940;53.120;8.764;2023-09-12T08:07:50;101377.00;;;22.05;83.43
79705;BME280;69940;53.120;8.764;2023-09-12T08:10:20;101377.00;;;22.04;83.60
79705;BME280;69940;53.120;8.764;2023-09-12T08:12:50;101376.00;;;22.03;83.37
79705;BME280;69940;53.120;8.764;2023-09-12T08:15:26;101376.00;;;22.01;83.33
79705;BME280;69940;53.120;8.764;2023-09-12T08:17:54;101378.00;;;21.98;83.42
79705;BME280;69940;53.120;8.764;2023-09-12T08:20:20;101381.00;;;21.96;83.55
79705;BME280;69940;53.120;8.764;2023-09-12T08:22:50;101385.00;;;21.94;83.24
79705;BME280;69940;53.120;8.764;2023-09-12T08:25:20;101387.00;;;21.91;83.45
79705;BME280;69940;53.120;8.764;2023-09-12T08:27:50;101387.00;;;21.90;83.57
79705;BME280;69940;53.120;8.764;2023-09-12T08:30:20;101386.00;;;21.88;83.72
79705;BME280;69940;53.120;8.764;2023-09-12T08:32:50;101387.00;;;21.87;83.78
79705;BME280;69940;53.120;8.764;2023-09-12T08:35:20;101388.00;;;21.86;83.87
79705;BME280;69940;53.120;8.764;2023-09-12T08:37:50;101391.00;;;21.87;83.88
79705;BME280;69940;53.120;8.764;2023-09-12T08:40:20;101395.00;;;21.89;83.64
79705;BME280;69940;53.120;8.764;2023-09-12T08:42:52;101397.00;;;21.92;83.67
79705;BME280;69940;53.120;8.764;2023-09-12T08:45:20;101399.00;;;21.95;82.99
79705;BME280;69940;53.120;8.764;2023-09-12T08:47:53;101400.00;;;21.98;82.71
79705;BME280;69940;53.120;8.764;2023-09-12T08:50:24;101402.00;;;22.01;82.78
79705;BME280;69940;53.120;8.764;2023-09-12T08:52:50;101402.00;;;22.02;82.29
79705;BME280;69940;53.120;8.764;2023-09-12T08:55:20;101401.00;;;22.03;82.32
79705;BME280;69940;53.120;8.764;2023-09-12T08:57:51;101399.00;;;22.04;82.26
79705;BME280;69940;53.120;8.764;2023-09-12T09:00:23;101399.00;;;22.06;82.34
79705;BME280;69940;53.120;8.764;2023-09-12T09:02:51;101400.00;;;22.07;82.55
79705;BME280;69940;53.120;8.764;2023-09-12T09:05:21;101401.00;;;22.09;82.29
79705;BME280;69940;53.120;8.764;2023-09-12T09:07:51;101401.00;;;22.09;81.74
79705;BME280;69940;53.120;8.764;2023-09-12T09:10:22;101402.00;;;22.09;81.56
79705;BME280;69940;53.120;8.764;2023-09-12T09:12:50;101402.00;;;22.07;81.46
79705;BME280;69940;53.120;8.764;2023-09-12T09:15:26;101404.00;;;22.06;81.52
79705;BME280;69940;53.120;8.764;2023-09-12T09:17:54;101407.00;;;22.04;81.79
79705;BME280;69940;53.120;8.764;2023-09-12T09:20:28;101411.00;;;22.01;81.88
79705;BME280;69940;53.120;8.764;2023-09-12T09:22:57;101418.00;;;21.98;82.22
79705;BME280;69940;53.120;8.764;2023-09-12T09:25:20;101422.00;;;21.96;82.16
79705;BME280;69940;53.120;8.764;2023-09-12T09:27:50;101426.00;;;21.93;82.44
79705;BME280;69940;53.120;8.764;2023-09-12T09:30:44;101432.00;;;21.90;82.56
79705;BME280;69940;53.120;8.764;2023-09-12T09:32:54;101436.00;;;21.87;82.69
79705;BME280;69940;53.120;8.764;2023-09-12T09:35:20;101440.00;;;21.86;82.74
79705;BME280;69940;53.120;8.764;2023-09-12T09:37:50;101443.00;;;21.84;82.90
79705;BME280;69940;53.120;8.764;2023-09-12T09:40:22;101446.00;;;21.82;82.64
79705;BME280;69940;53.120;8.764;2023-09-12T09:43:02;101450.00;;;21.82;82.64
79705;BME280;69940;53.120;8.764;2023-09-12T09:45:20;101453.00;;;21.81;82.75
79705;BME280;69940;53.120;8.764;2023-09-12T09:47:51;101456.00;;;21.80;82.76
79705;BME280;69940;53.120;8.764;2023-09-12T09:50:20;101458.00;;;21.80;82.83
79705;BME280;69940;53.120;8.764;2023-09-12T09:52:54;101460.00;;;21.79;82.79
79705;BME280;69940;53.120;8.764;2023-09-12T09:55:20;101462.00;;;21.78;82.62
79705;BME280;69940;53.120;8.764;2023-09-12T09:57:53;101463.00;;;21.77;82.65
79705;BME280;69940;53.120;8.764;2023-09-12T10:00:23;101465.00;;;21.76;82.75
79705;BME280;69940;53.120;8.764;2023-09-12T10:02:51;101467.00;;;21.75;82.98
79705;BME280;69940;53.120;8.764;2023-09-12T10:05:21;101467.00;;;21.74;83.18
79705;BME280;69940;53.120;8.764;2023-09-12T10:07:59;101467.00;;;21.74;83.28
79705;BME280;69940;53.120;8.764;2023-09-12T10:10:23;101466.00;;;21.73;83.38
79705;BME280;69940;53.120;8.764;2023-09-12T10:12:57;101465.00;;;21.73;83.03
79705;BME280;69940;53.120;8.764;2023-09-12T10:15:21;101463.00;;;21.75;83.03
79705;BME280;69940;53.120;8.764;2023-09-12T10:17:59;101462.00;;;21.76;83.09
79705;BME280;69940;53.120;8.764;2023-09-12T10:20:25;101460.00;;;21.78;83.08
79705;BME280;69940;53.120;8.764;2023-09-12T10:23:02;101459.00;;;21.80;82.49
79705;BME280;69940;53.120;8.764;2023-09-12T10:25:21;101458.00;;;21.81;82.42
79705;BME280;69940;53.120;8.764;2023-09-12T10:27:52;101458.00;;;21.82;82.44
79705;BME280;69940;53.120;8.764;2023-09-12T10:30:21;101456.00;;;21.82;82.35
79705;BME280;69940;53.120;8.764;2023-09-12T10:32:51;101454.00;;;21.82;82.32
79705;BME280;69940;53.120;8.764;2023-09-12T10:35:23;101451.00;;;21.82;82.16
79705;BME280;69940;53.120;8.764;2023-09-12T10:37:54;101448.00;;;21.81;82.07
79705;BME280;69940;53.120;8.764;2023-09-12T10:40:20;101446.00;;;21.81;82.05
79705;BME280;69940;53.120;8.764;2023-09-12T10:42:51;101443.00;;;21.80;81.98
79705;BME280;69940;53.120;8.764;2023-09-12T10:45:20;101439.00;;;21.80;81.98
79705;BME280;69940;53.120;8.764;2023-09-12T10:47:51;101436.00;;;21.80;82.11
79705;BME280;69940;53.120;8.764;2023-09-12T10:50:20;101434.00;;;21.80;82.64
79705;BME280;69940;53.120;8.764;2023-09-12T10:52:51;101431.00;;;21.80;83.11
79705;BME280;69940;53.120;8.764;2023-09-12T10:55:20;101428.00;;;21.80;83.14
79705;BME280;69940;53.120;8.764;2023-09-12T10:58:07;101424.00;;;21.79;83.50
79705;BME280;69940;53.120;8.764;2023-09-12T11:00:26;101418.00;;;21.79;82.88
79705;BME280;69940;53.120;8.764;2023-09-12T11:02:56;101412.00;;;21.79;83.25
79705;BME280;69940;53.120;8.764;2023-09-12T11:05:37;101407.00;;;21.80;83.21
79705;BME280;69940;53.120;8.764;2023-09-12T11:07:50;101401.00;;;21.80;83.32
79705;BME280;69940;53.120;8.764;2023-09-12T11:10:26;101398.00;;;21.81;82.92
79705;BME280;69940;53.120;8.764;2023-09-12T11:12:52;101395.00;;;21.83;83.15
79705;BME280;69940;53.120;8.764;2023-09-12T11:15:22;101394.00;;;21.84;82.84
79705;BME280;69940;53.120;8.764;2023-09-12T11:18:04;101392.00;;;21.87;82.95
79705;BME280;69940;53.120;8.764;2023-09-12T11:20:21;101392.00;;;21.89;83.02
79705;BME280;69940;53.120;8.764;2023-09-12T11:22:50;101393.00;;;21.92;82.68
79705;BME280;69940;53.120;8.764;2023-09-12T11:25:23;101394.00;;;21.96;82.23
79705;BME280;69940;53.120;8.764;2023-09-12T11:30:24;101401.00;;;22.06;81.10
79705;BME280;69940;53.120;8.764;2023-09-12T11:32:53;101404.00;;;22.13;80.68
79705;BME280;69940;53.120;8.764;2023-09-12T11:35:27;101408.00;;;22.20;80.16
79705;BME280;69940;53.120;8.764;2023-09-12T11:37:53;101412.00;;;22.27;79.57
79705;BME280;69940;53.120;8.764;2023-09-12T11:40:25;101418.00;;;22.36;79.33
79705;BME280;69940;53.120;8.764;2023-09-12T11:42:50;101421.00;;;22.45;79.37
79705;BME280;69940;53.120;8.764;2023-09-12T11:45:22;101423.00;;;22.53;78.96
79705;BME280;69940;53.120;8.764;2023-09-12T11:47:50;101423.00;;;22.62;78.87
79705;BME280;69940;53.120;8.764;2023-09-12T11:50:34;101425.00;;;22.67;78.20
79705;BME280;69940;53.120;8.764;2023-09-12T11:52:57;101423.00;;;22.71;78.02
79705;BME280;69940;53.120;8.764;2023-09-12T11:55:24;101422.00;;;22.74;78.07
79705;BME280;69940;53.120;8.764;2023-09-12T11:57:50;101420.00;;;22.77;77.94
79705;BME280;69940;53.120;8.764;2023-09-12T12:00:21;101417.00;;;22.79;78.11
79705;BME280;69940;53.120;8.764;2023-09-12T12:02:50;101416.00;;;22.80;78.47
79705;BME280;69940;53.120;8.764;2023-09-12T12:05:21;101414.00;;;22.80;78.35
79705;BME280;69940;53.120;8.764;2023-09-12T12:07:50;101414.00;;;22.80;78.42
79705;BME280;69940;53.120;8.764;2023-09-12T12:10:20;101413.00;;;22.80;78.73
79705;BME280;69940;53.120;8.764;2023-09-12T12:12:53;101412.00;;;22.80;78.17
79705;BME280;69940;53.120;8.764;2023-09-12T12:15:20;101412.00;;;22.81;78.00
79705;BME280;69940;53.120;8.764;2023-09-12T12:17:54;101409.00;;;22.83;77.87
79705;BME280;69940;53.120;8.764;2023-09-12T12:20:20;101406.00;;;22.85;78.23
79705;BME280;69940;53.120;8.764;2023-09-12T12:22:52;101404.00;;;22.89;77.42
79705;BME280;69940;53.120;8.764;2023-09-12T12:25:20;101403.00;;;22.93;77.15
79705;BME280;69940;53.120;8.764;2023-09-12T12:27:50;101403.00;;;22.97;76.99
79705;BME280;69940;53.120;8.764;2023-09-12T12:30:21;101402.00;;;23.00;76.64
79705;BME280;69940;53.120;8.764;2023-09-12T12:32:53;101401.00;;;23.01;76.97
79705;BME280;69940;53.120;8.764;2023-09-12T12:35:22;101399.00;;;23.00;76.59
79705;BME280;69940;53.120;8.764;2023-09-12T12:37:53;101396.00;;;22.97;76.94
79705;BME280;69940;53.120;8.764;2023-09-12T12:40:20;101395.00;;;22.94;77.12
79705;BME280;69940;53.120;8.764;2023-09-12T12:42:50;101393.00;;;22.91;77.13
79705;BME280;69940;53.120;8.764;2023-09-12T12:45:22;101392.00;;;22.89;77.47
79705;BME280;69940;53.120;8.764;2023-09-12T12:48:01;101389.00;;;22.89;77.43
79705;BME280;69940;53.120;8.764;2023-09-12T12:50:21;101388.00;;;22.92;77.64
79705;BME280;69940;53.120;8.764;2023-09-12T12:52:50;101386.00;;;22.96;77.34
79705;BME280;69940;53.120;8.764;2023-09-12T12:55:21;101383.00;;;23.00;77.06
79705;BME280;69940;53.120;8.764;2023-09-12T12:57:50;101382.00;;;23.07;76.33
79705;BME280;69940;53.120;8.764;2023-09-12T13:00:22;101381.00;;;23.14;76.60
79705;BME280;69940;53.120;8.764;2023-09-12T13:02:50;101381.00;;;23.20;76.42
79705;BME280;69940;53.120;8.764;2023-09-12T13:05:24;101382.00;;;23.27;74.95
79705;BME280;69940;53.120;8.764;2023-09-12T13:07:51;101380.00;;;23.31;74.59
79705;BME280;69940;53.120;8.764;2023-09-12T13:10:21;101379.00;;;23.33;74.90
79705;BME280;69940;53.120;8.764;2023-09-12T13:12:50;101378.00;;;23.35;74.77
79705;BME280;69940;53.120;8.764;2023-09-12T13:15:20;101376.00;;;23.36;74.80
79705;BME280;69940;53.120;8.764;2023-09-12T13:17:50;101374.00;;;23.35;75.22